createdAt,value
2023-04-19T00:00:44.552Z,8.40
2023-04-19T00:03:17.691Z,8.52
2023-04-19T00:05:50.733Z,8.45
2023-04-19T00:08:25.118Z,8.38
2023-04-19T00:11:00.301Z,8.34
2023-04-19T00:13:33.283Z,8.37
2023-04-19T00:16:07.401Z,8.24
2023-04-19T00:18:40.743Z,8.08
2023-04-19T00:21:13.625Z,8.05
2023-04-19T00:23:47.966Z,8.16
2023-04-19T00:26:20.933Z,8.06
2023-04-19T00:28:57.730Z,8.11
2023-04-19T00:31:30.581Z,8.06
2023-04-19T00:34:03.532Z,8.24
2023-04-19T00:36:36.483Z,8.17
2023-04-19T00:39:10.993Z,8.17
2023-04-19T00:41:44.683Z,8.12
2023-04-19T00:44:17.666Z,8.06
2023-04-19T00:46:51.185Z,8.01
2023-04-19T00:49:25.199Z,7.96
2023-04-19T00:51:58.074Z,8.01
2023-04-19T00:54:32.514Z,7.98
2023-04-19T00:57:05.706Z,7.84
2023-04-19T00:59:39.508Z,7.65
2023-04-19T01:02:14.260Z,7.59
2023-04-19T01:04:47.243Z,7.49
2023-04-19T01:07:20.802Z,7.52
2023-04-19T01:09:55.124Z,7.45
2023-04-19T01:12:28.405Z,7.52
2023-04-19T01:15:01.375Z,7.66
2023-04-19T01:17:34.675Z,8.00
2023-04-19T01:20:09.059Z,7.97
2023-04-19T01:22:44.081Z,8.10
2023-04-19T01:25:17.011Z,8.00
2023-04-19T01:27:49.985Z,8.19
2023-04-19T01:30:23.003Z,8.05
2023-04-19T01:32:56.017Z,8.04
2023-04-19T01:35:28.965Z,8.10
2023-04-19T01:38:03.176Z,7.76
2023-04-19T01:40:36.044Z,7.84
2023-04-19T01:43:12.659Z,8.09
2023-04-19T01:45:45.816Z,8.21
2023-04-19T01:48:18.689Z,7.79
2023-04-19T01:50:51.616Z,7.71
2023-04-19T01:53:25.860Z,7.96
2023-04-19T01:55:58.684Z,7.99
2023-04-19T01:58:32.492Z,8.02
2023-04-19T02:01:05.529Z,8.20
2023-04-19T02:03:38.654Z,7.91
2023-04-19T02:06:13.002Z,8.08
2023-04-19T02:08:47.435Z,8.24
2023-04-19T02:11:20.516Z,8.28
2023-04-19T02:13:53.382Z,8.17
2023-04-19T02:16:26.290Z,8.20
2023-04-19T02:18:59.828Z,8.02
2023-04-19T02:21:32.906Z,8.06
2023-04-19T02:24:08.016Z,7.91
2023-04-19T02:26:44.702Z,8.16
2023-04-19T02:29:18.071Z,8.26
2023-04-19T02:31:51.150Z,8.33
2023-04-19T02:34:24.461Z,8.31
2023-04-19T02:36:59.018Z,8.16
2023-04-19T02:39:35.957Z,8.23
2023-04-19T02:42:12.274Z,7.83
2023-04-19T02:44:45.907Z,8.06
2023-04-19T02:47:19.016Z,8.15
2023-04-19T02:49:52.077Z,8.07
2023-04-19T02:52:27.935Z,7.99
2023-04-19T02:55:02.788Z,8.07
2023-04-19T02:57:36.031Z,7.95
2023-04-19T03:00:11.336Z,7.70
2023-04-19T03:02:46.963Z,7.71
2023-04-19T03:05:20.173Z,7.78
2023-04-19T03:07:53.052Z,7.56
2023-04-19T03:10:27.610Z,7.42
2023-04-19T03:13:00.405Z,7.39
2023-04-19T03:15:33.664Z,7.45
2023-04-19T03:18:06.893Z,7.43
2023-04-19T03:20:40.859Z,7.37
2023-04-19T03:23:13.887Z,7.40
2023-04-19T03:25:48.572Z,7.49
2023-04-19T03:28:48.512Z,7.61
2023-04-19T03:31:31.639Z,7.51
2023-04-19T03:34:05.605Z,7.43
2023-04-19T03:36:45.200Z,7.29
2023-04-19T03:39:18.130Z,7.07
2023-04-19T03:41:55.378Z,7.06
2023-04-19T03:44:33.631Z,7.59
2023-04-19T03:47:08.972Z,7.55
2023-04-19T03:49:47.886Z,7.90
2023-04-19T03:52:21.038Z,7.96
2023-04-19T03:54:53.880Z,7.95
2023-04-19T03:57:42.306Z,7.93
2023-04-19T04:00:23.802Z,8.07
2023-04-19T04:03:02.465Z,7.91
2023-04-19T04:05:35.946Z,7.78
2023-04-19T04:08:08.809Z,7.91
2023-04-19T04:10:41.598Z,7.89
2023-04-19T04:13:16.052Z,8.03
2023-04-19T04:15:56.850Z,7.92
2023-04-19T04:18:29.765Z,7.92
2023-04-19T04:21:02.884Z,7.76
2023-04-19T04:23:37.797Z,7.75
2023-04-19T04:26:14.192Z,7.86
2023-04-19T04:29:03.043Z,7.87
2023-04-19T04:31:37.259Z,7.84
2023-04-19T04:34:10.410Z,7.66
2023-04-19T04:36:51.471Z,7.77
2023-04-19T04:39:26.532Z,7.98
2023-04-19T04:41:59.822Z,7.78
2023-04-19T04:44:34.259Z,8.12
2023-04-19T04:47:07.346Z,8.09
2023-04-19T04:49:46.388Z,8.17
2023-04-19T04:52:19.340Z,8.13
2023-04-19T04:55:04.427Z,7.94
2023-04-19T04:57:41.330Z,8.06
2023-04-19T05:00:22.075Z,8.07
2023-04-19T05:03:08.526Z,7.90
2023-04-19T05:05:46.472Z,7.92
2023-04-19T05:08:19.229Z,7.83
2023-04-19T05:10:53.761Z,7.84
2023-04-19T05:13:30.248Z,7.78
2023-04-19T05:16:04.732Z,7.90
2023-04-19T05:18:37.874Z,7.92
2023-04-19T05:21:11.687Z,7.98
2023-04-19T05:23:45.632Z,8.00
2023-04-19T05:26:19.852Z,8.06
2023-04-19T05:28:54.855Z,8.08
2023-04-19T05:31:38.322Z,8.09
2023-04-19T05:34:19.194Z,8.17
2023-04-19T05:36:54.312Z,8.24
2023-04-19T05:39:27.874Z,8.53
2023-04-19T05:42:01.857Z,8.77
2023-04-19T05:44:34.698Z,8.78
2023-04-19T05:47:09.119Z,8.75
2023-04-19T05:50:20.522Z,8.89
2023-04-19T05:53:08.809Z,8.84
2023-04-19T05:55:41.724Z,8.79
2023-04-19T05:58:14.875Z,8.98
2023-04-19T06:00:48.981Z,9.06
2023-04-19T06:03:28.728Z,9.29
2023-04-19T06:06:05.679Z,9.44
2023-04-19T06:08:38.856Z,9.34
2023-04-19T06:11:23.208Z,9.34
2023-04-19T06:14:00.194Z,9.41
2023-04-19T06:16:33.381Z,9.51
2023-04-19T06:19:07.963Z,9.46
2023-04-19T06:21:40.966Z,9.52
2023-04-19T06:24:14.317Z,9.94
2023-04-19T06:26:48.411Z,9.94
2023-04-19T06:29:23.688Z,9.93
2023-04-19T06:31:56.899Z,9.93
2023-04-19T06:34:31.303Z,9.87
2023-04-19T06:37:04.519Z,9.86
2023-04-19T06:39:37.614Z,10.05
2023-04-19T06:42:10.609Z,9.98
2023-04-19T06:44:45.864Z,9.68
2023-04-19T06:47:18.768Z,9.68
2023-04-19T06:49:52.955Z,9.87
2023-04-19T06:52:25.875Z,9.88
2023-04-19T06:54:59.008Z,9.98
2023-04-19T06:57:32.004Z,9.90
2023-04-19T07:00:06.712Z,10.00
2023-04-19T07:02:39.710Z,9.79
2023-04-19T07:05:14.433Z,9.99
2023-04-19T07:07:47.386Z,9.84
2023-04-19T07:10:20.183Z,9.87
2023-04-19T07:12:52.952Z,9.94
2023-04-19T07:15:25.812Z,9.99
2023-04-19T07:17:58.877Z,10.01
2023-04-19T07:20:33.440Z,10.18
2023-04-19T07:23:06.184Z,10.17
2023-04-19T07:25:39.042Z,10.25
2023-04-19T07:28:11.809Z,10.50
2023-04-19T07:30:46.153Z,10.42
2023-04-19T07:33:19.008Z,10.64
2023-04-19T07:35:53.358Z,10.25
2023-04-19T07:38:26.208Z,10.26
2023-04-19T07:40:59.198Z,10.18
2023-04-19T07:43:32.070Z,10.19
2023-04-19T07:46:11.325Z,10.18
2023-04-19T07:48:44.201Z,10.18
2023-04-19T07:51:19.322Z,10.22
2023-04-19T07:53:52.313Z,10.27
2023-04-19T07:56:26.446Z,10.11
2023-04-19T07:59:07.381Z,10.18
2023-04-19T08:01:43.125Z,10.48
2023-04-19T08:04:17.387Z,10.54
2023-04-19T08:06:53.007Z,10.28
2023-04-19T08:09:26.094Z,10.65
2023-04-19T08:11:59.069Z,10.96
2023-04-19T08:14:40.576Z,10.84
2023-04-19T08:17:25.935Z,10.83
2023-04-19T08:20:01.309Z,10.86
2023-04-19T08:22:35.563Z,10.70
2023-04-19T08:25:09.815Z,10.43
2023-04-19T08:27:46.213Z,10.60
2023-04-19T08:30:19.337Z,10.54
2023-04-19T08:32:52.758Z,10.50
2023-04-19T08:35:27.275Z,10.47
2023-04-19T08:38:02.574Z,10.41
2023-04-19T08:40:37.093Z,10.30
2023-04-19T08:43:09.957Z,10.31
2023-04-19T08:45:42.953Z,10.24
2023-04-19T08:48:17.314Z,10.17
2023-04-19T08:51:01.169Z,10.32
2023-04-19T08:53:38.832Z,10.30
2023-04-19T08:56:21.006Z,10.21
2023-04-19T09:01:44.885Z,10.34
2023-04-19T09:04:35.525Z,10.48
2023-04-19T09:07:10.031Z,10.65
2023-04-19T09:09:59.588Z,10.71
2023-04-19T09:12:36.103Z,10.98
2023-04-19T09:15:10.128Z,11.10
2023-04-19T09:17:43.059Z,11.06
2023-04-19T09:20:15.987Z,10.98
2023-04-19T09:23:04.268Z,11.01
2023-04-19T09:25:59.308Z,10.91
2023-04-19T09:28:31.960Z,11.29
2023-04-19T09:31:32.992Z,11.67
2023-04-19T09:34:18.007Z,12.04
2023-04-19T09:37:00.507Z,12.40
2023-04-19T09:39:41.545Z,12.64
2023-04-19T09:42:19.805Z,12.82
2023-04-19T09:47:35.984Z,12.07
2023-04-19T09:52:49.966Z,11.66
2023-04-19T09:55:27.684Z,11.86
2023-04-19T09:58:02.777Z,12.18
2023-04-19T10:00:47.550Z,11.54
2023-04-19T10:03:23.890Z,11.56
2023-04-19T10:05:57.352Z,11.34
2023-04-19T10:08:30.976Z,11.65
2023-04-19T10:11:04.235Z,11.57
2023-04-19T10:13:38.612Z,11.63
2023-04-19T10:16:18.852Z,11.71
2023-04-19T10:18:53.956Z,12.02
2023-04-19T10:21:28.782Z,12.27
2023-04-19T10:24:02.111Z,12.41
2023-04-19T10:27:08.600Z,12.82
2023-04-19T10:30:05.083Z,13.02
2023-04-19T10:32:41.182Z,13.08
2023-04-19T10:35:19.653Z,13.16
2023-04-19T10:38:10.199Z,13.38
2023-04-19T10:40:56.633Z,13.99
2023-04-19T10:43:30.722Z,13.71
2023-04-19T10:46:09.330Z,13.19
2023-04-19T10:48:53.790Z,13.68
2023-04-19T10:51:28.956Z,13.91
2023-04-19T10:54:02.726Z,13.46
2023-04-19T10:57:04.710Z,13.83
2023-04-19T10:59:39.077Z,14.35
2023-04-19T11:02:30.838Z,14.29
2023-04-19T11:05:04.592Z,14.07
2023-04-19T11:07:42.206Z,14.48
2023-04-19T11:10:29.846Z,14.65
2023-04-19T11:13:02.727Z,14.54
2023-04-19T11:15:35.791Z,14.72
2023-04-19T11:18:20.223Z,14.43
2023-04-19T11:20:54.695Z,14.26
2023-04-19T11:23:27.706Z,15.07
2023-04-19T11:26:00.515Z,14.26
2023-04-19T11:28:34.315Z,13.66
2023-04-19T11:31:07.656Z,13.83
2023-04-19T11:33:41.856Z,14.27
2023-04-19T11:36:15.158Z,14.93
2023-04-19T11:38:48.756Z,15.38
2023-04-19T11:41:21.862Z,15.84
2023-04-19T11:43:54.971Z,15.24
2023-04-19T11:46:27.871Z,15.99
2023-04-19T11:49:02.197Z,15.98
2023-04-19T11:51:35.135Z,15.89
2023-04-19T11:54:14.726Z,15.85
2023-04-19T11:57:02.237Z,15.41
2023-04-19T11:59:37.088Z,14.38
2023-04-19T12:02:11.358Z,14.85
2023-04-19T12:04:46.351Z,15.61
2023-04-19T12:07:19.199Z,14.81
2023-04-19T12:09:52.269Z,14.97
2023-04-19T12:12:34.545Z,15.71
2023-04-19T12:15:08.413Z,15.88
2023-04-19T12:17:59.890Z,16.37
2023-04-19T12:20:36.384Z,16.35
2023-04-19T12:23:11.502Z,16.19
2023-04-19T12:25:46.376Z,16.54
2023-04-19T12:28:19.218Z,16.17
2023-04-19T12:30:53.001Z,16.34
2023-04-19T12:33:26.017Z,16.49
2023-04-19T12:36:00.543Z,16.99
2023-04-19T12:38:33.458Z,17.48
2023-04-19T12:41:06.520Z,17.23
2023-04-19T12:43:39.546Z,16.77
2023-04-19T12:46:12.391Z,16.74
2023-04-19T12:48:45.211Z,16.65
2023-04-19T12:51:19.411Z,16.45
2023-04-19T12:53:53.622Z,16.27
2023-04-19T12:56:27.176Z,16.64
2023-04-19T12:59:00.407Z,16.29
2023-04-19T13:01:33.872Z,16.15
2023-04-19T13:04:11.830Z,16.53
2023-04-19T13:06:46.553Z,17.06
2023-04-19T13:09:19.616Z,17.07
2023-04-19T13:11:52.662Z,17.40
2023-04-19T13:14:26.459Z,17.25
2023-04-19T13:16:59.474Z,17.23
2023-04-19T13:19:32.360Z,16.51
2023-04-19T13:22:07.339Z,16.77
2023-04-19T13:24:40.206Z,16.96
2023-04-19T13:27:13.338Z,16.87
2023-04-19T13:29:46.633Z,17.41
2023-04-19T13:32:19.731Z,17.86
2023-04-19T13:34:53.224Z,16.93
2023-04-19T13:37:27.538Z,16.67
2023-04-19T13:40:14.940Z,17.17
2023-04-19T13:42:51.357Z,16.94
2023-04-19T13:45:28.480Z,16.63
2023-04-19T13:48:02.016Z,16.92
2023-04-19T13:50:35.526Z,16.49
2023-04-19T13:53:10.111Z,17.07
2023-04-19T13:55:43.163Z,16.85
2023-04-19T13:58:16.030Z,16.91
2023-04-19T14:00:49.214Z,17.15
2023-04-19T14:03:23.493Z,17.01
2023-04-19T14:05:56.695Z,17.40
2023-04-19T14:08:30.913Z,17.37
2023-04-19T14:11:03.835Z,16.88
2023-04-19T14:13:36.812Z,16.98
2023-04-19T14:16:10.118Z,16.67
2023-04-19T14:18:43.397Z,17.03
2023-04-19T14:21:16.494Z,17.12
2023-04-19T14:23:50.739Z,16.60
2023-04-19T14:26:24.957Z,16.31
2023-04-19T14:28:58.987Z,15.85
2023-04-19T14:31:31.955Z,15.36
2023-04-19T14:34:04.981Z,15.10
2023-04-19T14:36:37.840Z,14.92
2023-04-19T14:39:12.010Z,15.25
2023-04-19T14:41:45.611Z,14.71
2023-04-19T14:44:19.087Z,14.70
2023-04-19T14:46:51.978Z,14.20
2023-04-19T14:49:25.685Z,14.20
2023-04-19T14:51:58.861Z,14.95
2023-04-19T14:54:33.106Z,15.59
2023-04-19T14:57:06.049Z,15.32
2023-04-19T14:59:38.917Z,14.76
2023-04-19T15:02:13.378Z,14.73
2023-04-19T15:04:48.178Z,14.50
2023-04-19T15:07:21.858Z,15.05
2023-04-19T15:09:56.202Z,15.38
2023-04-19T15:12:28.980Z,14.78
2023-04-19T15:15:02.555Z,14.12
2023-04-19T15:17:35.948Z,14.57
2023-04-19T15:20:10.399Z,15.12
2023-04-19T15:22:43.289Z,14.96
2023-04-19T15:25:17.686Z,14.70
2023-04-19T15:27:50.565Z,13.93
2023-04-19T15:30:23.538Z,14.46
2023-04-19T15:32:57.054Z,14.27
2023-04-19T15:35:30.004Z,13.56
2023-04-19T15:38:02.980Z,13.49
2023-04-19T15:40:38.523Z,13.52
2023-04-19T15:43:11.444Z,13.85
2023-04-19T15:45:44.256Z,13.09
2023-04-19T15:48:17.460Z,13.39
2023-04-19T15:50:50.785Z,13.50
2023-04-19T15:53:23.849Z,13.63
2023-04-19T15:55:58.204Z,13.90
2023-04-19T15:58:31.077Z,13.94
2023-04-19T16:01:04.354Z,13.71
2023-04-19T16:03:37.485Z,14.14
2023-04-19T16:06:10.970Z,14.11
2023-04-19T16:08:43.865Z,13.58
2023-04-19T16:11:18.101Z,14.01
2023-04-19T16:13:51.174Z,14.20
2023-04-19T16:16:26.731Z,14.07
2023-04-19T16:18:59.702Z,13.61
2023-04-19T16:21:32.655Z,13.42
2023-04-19T16:24:06.029Z,13.65
2023-04-19T16:26:41.505Z,13.54
2023-04-19T16:29:14.627Z,13.42
2023-04-19T16:31:48.978Z,13.58
2023-04-19T16:34:25.385Z,13.85
2023-04-19T16:36:58.197Z,13.34
2023-04-19T16:39:31.037Z,13.85
2023-04-19T16:42:05.358Z,13.28
2023-04-19T16:44:38.178Z,13.19
2023-04-19T16:47:11.152Z,13.30
2023-04-19T16:49:45.890Z,13.14
2023-04-19T16:52:18.746Z,12.96
2023-04-19T16:54:51.755Z,12.88
2023-04-19T16:57:26.087Z,12.77
2023-04-19T16:59:59.180Z,12.76
2023-04-19T17:02:32.623Z,12.56
2023-04-19T17:05:06.661Z,12.86
2023-04-19T17:07:40.332Z,12.51
2023-04-19T17:10:14.052Z,12.68
2023-04-19T17:12:49.060Z,12.79
2023-04-19T17:15:22.095Z,12.40
2023-04-19T17:17:55.322Z,12.41
2023-04-19T17:20:28.277Z,12.47
2023-04-19T17:23:01.586Z,12.36
2023-04-19T17:25:34.652Z,12.30
2023-04-19T17:28:09.384Z,12.17
2023-04-19T17:30:42.445Z,11.99
2023-04-19T17:33:15.486Z,11.92
2023-04-19T17:35:51.317Z,11.85
2023-04-19T17:38:24.425Z,11.70
2023-04-19T17:40:58.479Z,11.77
2023-04-19T17:43:32.749Z,11.50
2023-04-19T17:46:05.873Z,11.72
2023-04-19T17:48:39.202Z,11.76
2023-04-19T17:51:12.046Z,11.71
2023-04-19T17:53:44.917Z,11.48
2023-04-19T17:56:17.753Z,11.32
2023-04-19T17:58:51.988Z,11.35
2023-04-19T18:01:24.800Z,11.35
2023-04-19T18:03:57.938Z,11.55
2023-04-19T18:06:31.795Z,11.06
2023-04-19T18:09:04.823Z,11.06
2023-04-19T18:11:37.602Z,10.79
2023-04-19T18:14:12.140Z,10.72
2023-04-19T18:16:45.025Z,10.63
2023-04-19T18:19:18.065Z,10.52
2023-04-19T18:21:51.112Z,10.30
2023-04-19T18:24:23.921Z,9.88
2023-04-19T18:26:58.139Z,10.11
2023-04-19T18:29:32.365Z,10.38
2023-04-19T18:32:05.774Z,10.12
2023-04-19T18:34:38.605Z,10.01
2023-04-19T18:37:16.041Z,9.70
2023-04-19T18:39:48.954Z,9.92
2023-04-19T18:42:21.817Z,9.61
2023-04-19T18:44:56.169Z,9.61
2023-04-19T18:47:29.457Z,9.60
2023-04-19T18:50:05.428Z,9.34
2023-04-19T18:52:43.313Z,9.05
2023-04-19T18:55:16.891Z,9.24
2023-04-19T18:57:49.725Z,8.94
2023-04-19T19:00:25.230Z,8.91
2023-04-19T19:02:59.926Z,8.83
2023-04-19T19:05:33.911Z,8.92
2023-04-19T19:08:07.956Z,8.80
2023-04-19T19:11:06.686Z,8.74
2023-04-19T19:13:33.704Z,8.75
2023-04-19T19:16:08.489Z,8.35
2023-04-19T19:18:41.439Z,8.50
2023-04-19T19:21:14.299Z,8.53
2023-04-19T19:23:47.106Z,8.41
2023-04-19T19:26:19.929Z,8.56
2023-04-19T19:28:53.584Z,8.18
2023-04-19T19:31:27.951Z,8.37
2023-04-19T19:34:22.064Z,8.20
2023-04-19T19:36:54.080Z,8.39
2023-04-19T19:39:27.032Z,8.44
2023-04-19T19:42:05.881Z,8.22
2023-04-19T19:44:39.274Z,8.52
2023-04-19T19:47:17.008Z,8.39
2023-04-19T19:50:34.992Z,8.12
2023-04-19T19:52:43.467Z,7.81
2023-04-19T19:55:16.216Z,7.81
2023-04-19T19:58:23.823Z,8.01
2023-04-19T20:00:46.949Z,7.91
2023-04-19T20:03:36.001Z,7.94
2023-04-19T20:06:57.246Z,7.84
2023-04-19T20:09:04.650Z,7.56
2023-04-19T20:11:37.609Z,6.88
2023-04-19T20:14:10.559Z,7.37
2023-04-19T20:16:43.673Z,7.44
2023-04-19T20:19:18.325Z,6.81
2023-04-19T20:21:51.502Z,6.48
2023-04-19T20:24:24.364Z,5.90
2023-04-19T20:26:57.503Z,6.04
2023-04-19T20:29:30.835Z,6.44
2023-04-19T20:32:04.197Z,6.24
2023-04-19T20:34:39.924Z,6.10
2023-04-19T20:37:13.113Z,6.08
2023-04-19T20:39:46.274Z,5.96
2023-04-19T20:42:19.097Z,5.36
2023-04-19T20:44:51.983Z,5.39
2023-04-19T20:47:25.733Z,5.11
2023-04-19T20:50:00.222Z,5.92
2023-04-19T20:52:33.179Z,5.88
2023-04-19T20:55:06.652Z,5.54
2023-04-19T20:57:39.466Z,5.74
2023-04-19T21:00:16.217Z,5.51
2023-04-19T21:02:49.616Z,5.77
2023-04-19T21:05:24.098Z,5.58
2023-04-19T21:07:57.294Z,5.49
2023-04-19T21:10:31.018Z,5.49
2023-04-19T21:13:03.825Z,5.66
2023-04-19T21:15:37.891Z,5.43
2023-04-19T21:18:10.815Z,5.20
2023-04-19T21:20:45.069Z,5.13
2023-04-19T21:23:17.841Z,4.71
2023-04-19T21:25:51.115Z,4.61
2023-04-19T21:28:25.116Z,4.51
2023-04-19T21:30:58.500Z,4.92
2023-04-19T21:33:31.725Z,4.86
2023-04-19T21:36:07.125Z,4.90
2023-04-19T21:38:40.059Z,5.05
2023-04-19T21:41:13.083Z,4.98
2023-04-19T21:43:45.974Z,4.36
2023-04-19T21:46:18.815Z,3.62
2023-04-19T21:48:53.556Z,4.38
2023-04-19T21:51:29.391Z,4.54
2023-04-19T21:54:02.220Z,4.55
2023-04-19T21:56:35.064Z,4.62
2023-04-19T21:59:07.850Z,4.72
2023-04-19T22:01:40.732Z,4.42
2023-04-19T22:04:14.374Z,4.38
2023-04-19T22:06:49.465Z,4.18
2023-04-19T22:09:22.257Z,4.55
2023-04-19T22:11:55.322Z,4.47
2023-04-19T22:14:28.514Z,4.30
2023-04-19T22:17:02.484Z,4.09
2023-04-19T22:19:35.773Z,4.08
2023-04-19T22:22:10.337Z,4.13
2023-04-19T22:24:56.331Z,4.09
2023-04-19T22:27:30.692Z,3.92
2023-04-19T22:30:03.839Z,3.98
2023-04-19T22:32:36.633Z,3.91
2023-04-19T22:35:10.563Z,3.84
2023-04-19T22:37:44.705Z,3.86
2023-04-19T22:40:17.534Z,3.90
2023-04-19T22:42:50.361Z,3.91
2023-04-19T22:45:23.187Z,3.80
2023-04-19T22:47:56.411Z,3.82
2023-04-19T22:50:30.031Z,3.74
2023-04-19T22:53:04.232Z,2.71
2023-04-19T22:55:37.059Z,2.68
2023-04-19T22:58:11.605Z,2.93
2023-04-19T23:00:44.408Z,3.23
2023-04-19T23:03:17.301Z,3.36
2023-04-19T23:05:50.165Z,3.11
2023-04-19T23:08:25.020Z,3.24
2023-04-19T23:10:57.790Z,3.26
2023-04-19T23:13:30.695Z,3.36
2023-04-19T23:16:03.682Z,3.27
2023-04-19T23:18:36.452Z,3.40
2023-04-19T23:21:09.434Z,3.43
2023-04-19T23:23:43.652Z,3.55
2023-04-19T23:26:16.458Z,3.50
2023-04-19T23:28:49.328Z,3.04
2023-04-19T23:31:22.283Z,3.11
2023-04-19T23:33:55.182Z,3.04
2023-04-19T23:36:28.030Z,2.97
2023-04-19T23:39:02.224Z,3.13
2023-04-19T23:41:35.057Z,3.20
2023-04-19T23:44:07.831Z,2.60
2023-04-19T23:46:40.877Z,2.61
2023-04-19T23:49:13.752Z,3.02
2023-04-19T23:51:48.784Z,3.17
2023-04-19T23:54:25.858Z,3.22
2023-04-19T23:56:59.101Z,3.38
2023-04-19T23:59:33.195Z,3.20
